Time;durP1;ratioP1;P1;durP2;ratioP2;P2;SDS_P1;SDS_P2;PMS_P1;PMS_P2;Temp;Humidity;BMP_temperature;BMP_pressure;BME280_temperature;BME280_humidity;BME280_pressure;Samples;Min_cycle;Max_cycle;Signal;HPM_P1;HPM_P2
2021/09/10 00:02:21;;;;;;;17.20;10.38;;;18.30;99.90;;;;;;4905659;29;20063;-91
2021/09/10 00:04:47;;;;;;;17.75;10.70;;;18.30;99.90;;;;;;4902597;29;20047;-92
2021/09/10 00:07:13;;;;;;;19.17;11.82;;;18.20;99.90;;;;;;4928498;29;20036;-90
2021/09/10 00:09:38;;;;;;;17.55;11.70;;;18.20;99.90;;;;;;4912833;29;20085;-92
2021/09/10 00:12:04;;;;;;;18.70;12.48;;;18.20;99.90;;;;;;4919367;29;20028;-92
2021/09/10 00:14:32;;;;;;;20.67;13.15;;;18.20;99.90;;;;;;4918894;29;20028;-91
2021/09/10 00:16:58;;;;;;;20.10;13.10;;;18.20;99.90;;;;;;4918572;29;20055;-91
2021/09/10 00:19:24;;;;;;;18.33;11.70;;;18.20;99.90;;;;;;4906952;29;20067;-91
2021/09/10 00:21:50;;;;;;;18.55;12.50;;;18.20;99.90;;;;;;4907149;29;20027;-91
2021/09/10 00:24:15;;;;;;;16.88;11.32;;;18.20;99.90;;;;;;4914265;29;20031;-91
2021/09/10 00:26:41;;;;;;;19.90;12.20;;;18.20;99.90;;;;;;4902651;29;20043;-91
2021/09/10 00:29:06;;;;;;;17.70;12.23;;;18.20;99.90;;;;;;4903616;29;20500;-91
2021/09/10 00:31:32;;;;;;;26.77;13.40;;;18.10;99.90;;;;;;4908277;29;20059;-91
2021/09/10 00:33:58;;;;;;;20.63;13.63;;;18.10;99.90;;;;;;4933065;29;20036;-91
2021/09/10 00:36:23;;;;;;;23.52;13.60;;;18.10;99.90;;;;;;4924730;29;20040;-92
2021/09/10 00:38:49;;;;;;;22.83;14.10;;;18.10;99.90;;;;;;4903493;29;20024;-92
2021/09/10 00:41:15;;;;;;;19.75;13.32;;;18.00;99.90;;;;;;4903362;29;20032;-92
2021/09/10 00:43:40;;;;;;;18.30;12.82;;;18.00;99.90;;;;;;4903311;29;20027;-91
2021/09/10 00:46:06;;;;;;;20.60;13.38;;;18.00;99.90;;;;;;4903471;29;20055;-91
2021/09/10 00:48:32;;;;;;;22.27;14.32;;;18.00;99.90;;;;;;4903243;29;20020;-91
2021/09/10 00:50:58;;;;;;;27.63;16.27;;;18.00;99.90;;;;;;4917512;29;20040;-91
2021/09/10 00:53:23;;;;;;;23.50;15.75;;;18.00;99.90;;;;;;4903504;29;20478;-92
2021/09/10 00:55:49;;;;;;;18.83;13.15;;;17.90;99.90;;;;;;4903539;29;20032;-91
2021/09/10 00:58:15;;;;;;;21.88;15.95;;;17.90;99.90;;;;;;4920411;29;20024;-91
2021/09/10 01:00:41;;;;;;;27.00;15.18;;;17.90;99.90;;;;;;4903600;29;20095;-92
2021/09/10 01:03:08;;;;;;;23.02;14.43;;;17.90;99.90;;;;;;4903400;29;20059;-92
2021/09/10 01:05:34;;;;;;;22.73;14.90;;;17.80;99.90;;;;;;4904134;29;20027;-91
2021/09/10 01:08:00;;;;;;;22.33;14.48;;;17.80;99.90;;;;;;4919372;29;20036;-92
2021/09/10 01:10:26;;;;;;;24.67;15.50;;;17.80;99.90;;;;;;4919108;29;20144;-91
2021/09/10 01:12:53;;;;;;;24.35;15.18;;;17.80;99.90;;;;;;4903559;29;20028;-92
2021/09/10 01:15:20;;;;;;;16.92;11.63;;;17.70;99.90;;;;;;4903653;29;20034;-90
2021/09/10 01:17:47;;;;;;;21.70;14.75;;;17.70;99.90;;;;;;4903425;29;20028;-90
2021/09/10 01:20:13;;;;;;;24.90;15.35;;;17.70;99.90;;;;;;4903047;29;20115;-90
2021/09/10 01:22:39;;;;;;;23.85;15.15;;;17.70;99.90;;;;;;4904367;29;20059;-91
2021/09/10 01:25:12;;;;;;;22.58;15.35;;;17.70;99.90;;;;;;4918738;29;20039;-91
2021/09/10 01:27:45;;;;;;;19.63;14.13;;;17.70;99.90;;;;;;4902966;29;20032;-91
2021/09/10 01:30:12;;;;;;;23.13;14.90;;;17.70;99.90;;;;;;4903114;29;20039;-90
2021/09/10 01:32:39;;;;;;;20.85;13.93;;;17.70;99.90;;;;;;4903023;29;20088;-90
2021/09/10 01:35:06;;;;;;;22.25;14.30;;;17.70;99.90;;;;;;4902943;29;20029;-91
2021/09/10 01:37:32;;;;;;;25.08;15.93;;;17.70;99.90;;;;;;4903076;29;20032;-90
2021/09/10 01:39:57;;;;;;;21.33;13.35;;;17.80;99.90;;;;;;4918385;29;20503;-91
2021/09/10 01:42:23;;;;;;;24.42;14.02;;;17.70;99.90;;;;;;4902871;29;20032;-91
2021/09/10 01:44:49;;;;;;;22.58;14.20;;;17.70;99.90;;;;;;4902989;29;20024;-91
2021/09/10 01:47:14;;;;;;;25.42;14.77;;;17.80;99.90;;;;;;4902626;29;20028;-90
2021/09/10 01:49:40;;;;;;;26.25;14.75;;;17.80;99.90;;;;;;4902757;29;20028;-90
2021/09/10 01:52:06;;;;;;;19.33;13.73;;;17.80;99.90;;;;;;4902771;29;20028;-90
2021/09/10 01:54:32;;;;;;;22.38;14.65;;;17.80;99.90;;;;;;4902503;29;20398;-90
2021/09/10 01:56:58;;;;;;;23.10;10.77;;;17.80;99.90;;;;;;4918105;29;20111;-91
2021/09/10 01:59:24;;;;;;;23.90;14.48;;;17.80;99.90;;;;;;4902226;29;20346;-89
2021/09/10 02:01:49;;;;;;;24.35;14.43;;;17.70;99.90;;;;;;4902295;29;20059;-90
2021/09/10 02:04:18;;;;;;;25.75;14.85;;;17.70;99.90;;;;;;4902398;29;20043;-90
2021/09/10 02:06:44;;;;;;;24.27;14.60;;;17.60;99.90;;;;;;4902139;29;20028;-90
2021/09/10 02:09:09;;;;;;;19.75;11.88;;;17.60;99.90;;;;;;4902048;29;20043;-90
2021/09/10 02:11:35;;;;;;;20.58;14.00;;;17.60;99.90;;;;;;4902105;29;20382;-90
2021/09/10 02:14:01;;;;;;;20.45;12.75;;;17.60;99.90;;;;;;4918059;29;20051;-90
2021/09/10 02:16:26;;;;;;;19.95;13.25;;;17.60;99.90;;;;;;4902326;29;20024;-90
2021/09/10 02:18:52;;;;;;;24.95;14.60;;;17.60;99.90;;;;;;4902730;29;20443;-89
2021/09/10 02:21:18;;;;;;;21.77;14.88;;;17.60;99.90;;;;;;4904034;29;20039;-90
2021/09/10 02:23:43;;;;;;;27.80;14.48;;;17.60;99.90;;;;;;4914982;29;20012;-90
2021/09/10 02:26:09;;;;;;;25.90;14.00;;;17.60;99.90;;;;;;4919174;29;20036;-90
2021/09/10 02:28:35;;;;;;;21.05;13.55;;;17.60;99.90;;;;;;4901894;29;20031;-90
2021/09/10 02:31:01;;;;;;;24.65;14.82;;;17.60;99.90;;;;;;4917205;29;20180;-91
2021/09/10 02:33:27;;;;;;;22.08;13.32;;;17.60;99.90;;;;;;4901906;29;20027;-92
2021/09/10 02:35:54;;;;;;;13.80;9.88;;;17.60;99.90;;;;;;4901886;29;20534;-91
2021/09/10 02:38:21;;;;;;;20.38;13.52;;;17.60;99.90;;;;;;4901846;29;20622;-91
2021/09/10 02:40:46;;;;;;;20.15;12.98;;;17.60;99.90;;;;;;4901650;29;20036;-90
2021/09/10 02:43:12;;;;;;;22.75;13.13;;;17.50;99.90;;;;;;4901533;29;20032;-91
2021/09/10 02:45:38;;;;;;;21.73;12.68;;;17.50;99.90;;;;;;4917443;29;20028;-90
2021/09/10 02:48:04;;;;;;;19.90;12.77;;;17.50;99.90;;;;;;4901509;29;20031;-91
2021/09/10 02:50:30;;;;;;;24.08;14.13;;;17.50;99.90;;;;;;4901961;29;20032;-90
2021/09/10 02:52:56;;;;;;;22.08;13.35;;;17.50;99.90;;;;;;4901435;29;20386;-90
2021/09/10 02:55:21;;;;;;;20.42;12.43;;;17.50;99.90;;;;;;4901702;29;20040;-91
2021/09/10 02:57:47;;;;;;;21.20;12.90;;;17.50;99.90;;;;;;4901251;29;20072;-91
2021/09/10 03:00:14;;;;;;;18.27;12.32;;;17.50;99.90;;;;;;4905653;29;20489;-90
2021/09/10 03:02:39;;;;;;;22.30;13.32;;;17.60;99.90;;;;;;4936540;29;20130;-91
2021/09/10 03:05:07;;;;;;;25.45;13.77;;;17.60;99.90;;;;;;4920533;29;20062;-90
2021/09/10 03:07:32;;;;;;;21.38;12.98;;;17.60;99.90;;;;;;4920741;29;20039;-90
2021/09/10 03:09:58;;;;;;;23.27;13.27;;;17.60;99.90;;;;;;4919995;29;20024;-91
2021/09/10 03:12:24;;;;;;;24.05;13.13;;;17.60;99.90;;;;;;4920129;29;20032;-90
2021/09/10 03:14:50;;;;;;;20.00;12.75;;;17.60;99.90;;;;;;4920781;29;20034;-90
2021/09/10 03:17:16;;;;;;;21.60;12.93;;;17.60;99.90;;;;;;4920585;29;20024;-90
2021/09/10 03:19:42;;;;;;;20.42;12.40;;;17.60;99.90;;;;;;4935913;29;20047;-91
2021/09/10 03:22:08;;;;;;;16.90;11.55;;;17.60;99.90;;;;;;4920013;29;20039;-90
2021/09/10 03:24:33;;;;;;;19.50;12.35;;;17.60;99.90;;;;;;4920041;29;20110;-91
2021/09/10 03:26:59;;;;;;;15.93;10.48;;;17.60;99.90;;;;;;4920203;29;20034;-90
2021/09/10 03:29:25;;;;;;;19.95;11.88;;;17.60;99.90;;;;;;4919925;29;20059;-90
2021/09/10 03:31:51;;;;;;;17.23;11.52;;;17.60;99.90;;;;;;4919581;29;20647;-90
2021/09/10 03:34:17;;;;;;;18.38;11.55;;;17.60;99.90;;;;;;4936204;29;20039;-90
2021/09/10 03:36:43;;;;;;;19.38;12.63;;;17.60;99.90;;;;;;4920956;29;20031;-91
2021/09/10 03:39:09;;;;;;;19.85;11.73;;;17.60;99.90;;;;;;4920092;29;20027;-90
2021/09/10 03:41:34;;;;;;;17.05;11.35;;;17.60;99.90;;;;;;4918878;29;20035;-90
2021/09/10 03:44:00;;;;;;;22.58;11.52;;;17.60;99.90;;;;;;4919651;29;20443;-90
2021/09/10 03:46:26;;;;;;;17.90;11.00;;;17.60;99.90;;;;;;4919821;29;20079;-90
2021/09/10 03:48:51;;;;;;;17.27;11.00;;;17.60;99.90;;;;;;4919948;29;20533;-90
2021/09/10 03:51:17;;;;;;;18.05;10.30;;;17.60;99.90;;;;;;4935822;29;20066;-91
2021/09/10 03:53:43;;;;;;;21.45;13.05;;;17.60;99.90;;;;;;4920598;29;20043;-91
2021/09/10 03:56:09;;;;;;;24.00;11.25;;;17.60;99.90;;;;;;4921125;29;20032;-90
2021/09/10 03:58:35;;;;;;;18.35;11.25;;;17.60;99.90;;;;;;4921337;29;20083;-90
2021/09/10 04:01:00;;;;;;;24.98;11.85;;;17.60;99.90;;;;;;4933842;29;20042;-89
2021/09/10 04:03:26;;;;;;;21.10;10.50;;;17.60;99.90;;;;;;4939620;29;20060;-89
2021/09/10 04:05:52;;;;;;;20.25;11.45;;;17.60;99.90;;;;;;4956018;29;20084;-89
2021/09/10 04:08:18;;;;;;;17.48;11.10;;;17.60;99.90;;;;;;4932344;29;20032;-90
2021/09/10 04:10:43;;;;;;;13.07;9.25;;;17.60;99.90;;;;;;4925397;29;20035;-90
2021/09/10 04:13:10;;;;;;;18.75;11.85;;;17.60;99.90;;;;;;4946664;29;20024;-90
2021/09/10 04:15:36;;;;;;;19.58;10.93;;;17.60;99.90;;;;;;4937679;29;20099;-90
2021/09/10 04:18:03;;;;;;;22.48;13.05;;;17.50;99.90;;;;;;4923003;29;20039;-90
2021/09/10 04:20:29;;;;;;;19.67;11.82;;;17.50;99.90;;;;;;4920708;29;20032;-91
2021/09/10 04:22:54;;;;;;;23.52;15.23;;;17.50;99.90;;;;;;4921395;29;20035;-91
2021/09/10 04:25:20;;;;;;;24.15;16.88;;;17.50;99.90;;;;;;4920961;29;20481;-90
2021/09/10 04:27:46;;;;;;;26.20;15.88;;;17.40;99.90;;;;;;4920389;29;20024;-90
2021/09/10 04:30:13;;;;;;;24.30;15.75;;;17.40;99.90;;;;;;4920540;29;20032;-90
2021/09/10 04:32:39;;;;;;;25.42;14.95;;;17.40;99.90;;;;;;4920157;29;20027;-91
2021/09/10 04:35:07;;;;;;;24.90;15.20;;;17.40;99.90;;;;;;4920063;29;20546;-90
2021/09/10 04:37:33;;;;;;;23.90;16.10;;;17.40;99.90;;;;;;4920294;29;20056;-91
2021/09/10 04:40:00;;;;;;;24.02;15.60;;;17.40;99.90;;;;;;4919793;29;20024;-91
2021/09/10 04:42:27;;;;;;;25.92;16.85;;;17.40;99.90;;;;;;4919836;29;20089;-90
2021/09/10 04:44:53;;;;;;;26.02;17.33;;;17.40;99.90;;;;;;4919978;29;20027;-90
2021/09/10 04:47:19;;;;;;;25.95;17.42;;;17.40;99.90;;;;;;4935873;29;20032;-90
2021/09/10 04:49:53;;;;;;;28.20;17.30;;;17.40;99.90;;;;;;4920214;29;20034;-90
2021/09/10 04:52:18;;;;;;;26.42;17.17;;;17.40;99.90;;;;;;4919689;29;20028;-90
2021/09/10 04:54:44;;;;;;;29.13;17.52;;;17.30;99.90;;;;;;4921487;29;20091;-91
2021/09/10 04:57:10;;;;;;;26.27;17.48;;;17.40;99.90;;;;;;4922841;29;20083;-90
2021/09/10 04:59:36;;;;;;;27.15;19.60;;;17.40;99.90;;;;;;4884241;29;20044;-91
2021/09/10 05:02:02;;;;;;;28.00;18.13;;;17.40;99.90;;;;;;4897708;29;20537;-91
2021/09/10 05:04:27;;;;;;;27.92;17.95;;;17.40;99.90;;;;;;4918534;29;20032;-91
2021/09/10 05:06:53;;;;;;;32.50;20.35;;;17.40;99.90;;;;;;4902436;29;20048;-91
2021/09/10 05:09:19;;;;;;;32.95;20.23;;;17.40;99.90;;;;;;4903107;29;20044;-90
2021/09/10 05:11:45;;;;;;;29.50;18.83;;;17.40;99.90;;;;;;4903338;29;20028;-91
2021/09/10 05:14:11;;;;;;;34.10;19.45;;;17.40;99.90;;;;;;4903071;29;20183;-90
2021/09/10 05:16:37;;;;;;;30.08;19.85;;;17.40;99.90;;;;;;4903680;29;20028;-90
2021/09/10 05:19:04;;;;;;;31.23;19.58;;;17.40;99.90;;;;;;4903473;29;20496;-91
2021/09/10 05:21:30;;;;;;;33.10;20.25;;;17.40;99.90;;;;;;4917520;29;20682;-90
2021/09/10 05:23:56;;;;;;;31.00;20.15;;;17.40;99.90;;;;;;4891759;29;20075;-90
2021/09/10 05:26:21;;;;;;;34.00;20.55;;;17.30;99.90;;;;;;4891477;29;20024;-90
2021/09/10 05:28:47;;;;;;;30.30;18.40;;;17.30;99.90;;;;;;4910100;29;20478;-91
2021/09/10 05:31:13;;;;;;;36.20;19.85;;;17.30;99.90;;;;;;4891485;29;20570;-92
2021/09/10 05:33:39;;;;;;;31.63;19.67;;;17.30;99.90;;;;;;4893240;29;20024;-90
2021/09/10 05:36:05;;;;;;;30.23;19.02;;;17.40;99.90;;;;;;4892482;29;20031;-92
2021/09/10 05:38:31;;;;;;;33.65;19.83;;;17.40;99.90;;;;;;4891441;29;20028;-90
2021/09/10 05:40:56;;;;;;;36.67;20.60;;;17.30;99.90;;;;;;4891783;29;20080;-90
2021/09/10 05:43:22;;;;;;;34.78;20.30;;;17.40;99.90;;;;;;4891598;29;20781;-90
2021/09/10 05:45:48;;;;;;;32.67;20.52;;;17.40;99.90;;;;;;4906848;29;20028;-91
2021/09/10 05:48:18;;;;;;;36.58;21.15;;;17.40;99.90;;;;;;4893784;29;20486;-90
2021/09/10 05:50:46;;;;;;;39.22;21.52;;;17.40;99.90;;;;;;4891362;29;20035;-91
2021/09/10 05:53:12;;;;;;;32.00;19.60;;;17.50;99.90;;;;;;4914794;29;20081;-90
2021/09/10 05:58:06;;;;;;;42.10;21.00;;;17.50;99.90;;;;;;4960270;23;20046;-91
2021/09/10 06:00:31;;;;;;;36.08;20.30;;;17.50;99.90;;;;;;4906798;29;20058;-92
2021/09/10 06:02:57;;;;;;;41.78;19.98;;;17.50;99.90;;;;;;4935134;29;20100;-90
2021/09/10 06:05:23;;;;;;;37.58;20.23;;;17.50;99.90;;;;;;4917292;29;20040;-91
2021/09/10 06:07:49;;;;;;;33.83;19.02;;;17.50;99.90;;;;;;4911080;29;20019;-91
2021/09/10 06:10:17;;;;;;;35.72;18.63;;;17.50;99.90;;;;;;4910226;29;20068;-91
2021/09/10 06:12:43;;;;;;;37.88;18.88;;;17.50;99.90;;;;;;4907783;29;20478;-91
2021/09/10 06:15:10;;;;;;;35.13;19.45;;;17.50;99.90;;;;;;4910443;29;20066;-92
2021/09/10 06:17:35;;;;;;;34.35;19.08;;;17.60;99.90;;;;;;4911224;29;20462;-93
2021/09/10 06:20:02;;;;;;;33.30;18.52;;;17.60;99.90;;;;;;4908903;29;20040;-92
2021/09/10 06:22:28;;;;;;;33.70;17.52;;;17.60;99.90;;;;;;4912064;29;20027;-92
2021/09/10 06:24:54;;;;;;;32.22;17.92;;;17.60;99.90;;;;;;4921297;29;20034;-91
2021/09/10 06:27:19;;;;;;;32.30;17.40;;;17.60;99.90;;;;;;4920993;29;20031;-92
2021/09/10 06:29:45;;;;;;;34.30;18.65;;;17.50;99.90;;;;;;4912833;29;20019;-92
2021/09/10 06:32:13;;;;;;;28.13;16.02;;;17.50;99.90;;;;;;4911362;29;20434;-93
2021/09/10 06:34:39;;;;;;;25.17;14.70;;;17.50;99.90;;;;;;4912382;29;20038;-92
2021/09/10 06:37:05;;;;;;;23.00;14.00;;;17.50;99.90;;;;;;4910551;29;20028;-92
2021/09/10 06:39:31;;;;;;;20.80;13.68;;;17.40;99.90;;;;;;4909892;29;20540;-91
2021/09/10 06:41:57;;;;;;;16.77;11.98;;;17.40;99.90;;;;;;4911667;29;20044;-92
2021/09/10 06:44:23;;;;;;;17.85;11.68;;;17.30;99.90;;;;;;4911345;29;20035;-92
2021/09/10 06:46:49;;;;;;;17.85;11.55;;;17.30;99.90;;;;;;4909331;29;20024;-91
2021/09/10 06:49:14;;;;;;;20.60;10.77;;;17.30;99.90;;;;;;4909469;29;20028;-91
2021/09/10 06:51:40;;;;;;;17.75;10.88;;;17.30;99.90;;;;;;4908613;29;20062;-90
2021/09/10 06:54:05;;;;;;;17.17;10.55;;;17.30;99.90;;;;;;4910565;29;20024;-91
2021/09/10 06:56:31;;;;;;;17.13;11.88;;;17.30;99.90;;;;;;4910702;29;20028;-93
2021/09/10 06:58:57;;;;;;;19.08;12.07;;;17.40;99.90;;;;;;4905904;29;20052;-92
2021/09/10 07:01:32;;;;;;;16.63;10.65;;;17.40;99.90;;;;;;4900027;29;20032;-93
2021/09/10 07:03:59;;;;;;;17.15;10.38;;;17.40;99.90;;;;;;4900919;29;20402;-93
2021/09/10 07:06:25;;;;;;;13.70;9.85;;;17.50;99.90;;;;;;4900199;29;20028;-92
2021/09/10 07:08:50;;;;;;;18.05;10.27;;;17.50;99.90;;;;;;4900270;29;20032;-94
2021/09/10 07:11:19;;;;;;;15.27;10.23;;;17.50;99.90;;;;;;4899734;29;20048;-93
2021/09/10 07:13:46;;;;;;;13.48;9.85;;;17.50;99.90;;;;;;4913241;29;20474;-91
2021/09/10 07:16:13;;;;;;;16.45;10.38;;;17.60;99.90;;;;;;4901121;29;20158;-92
2021/09/10 07:18:39;;;;;;;16.67;10.60;;;17.60;99.90;;;;;;4901285;29;20067;-91
2021/09/10 07:21:08;;;;;;;16.63;10.90;;;17.60;99.90;;;;;;4902473;29;20497;-91
2021/09/10 07:23:37;;;;;;;15.15;10.88;;;17.70;99.90;;;;;;4903414;29;20027;-92
2021/09/10 07:26:03;;;;;;;15.93;10.18;;;17.70;99.90;;;;;;4905710;29;20120;-92
2021/09/10 07:28:33;;;;;;;17.92;9.90;;;17.70;99.90;;;;;;4901428;29;20119;-92
2021/09/10 07:30:59;;;;;;;17.90;9.95;;;17.80;99.90;;;;;;4900874;29;20493;-92
2021/09/10 07:33:26;;;;;;;17.63;10.40;;;17.80;99.90;;;;;;4901021;29;20115;-92
2021/09/10 07:35:52;;;;;;;13.05;8.27;;;17.90;99.90;;;;;;4901347;29;20039;-92
2021/09/10 07:38:18;;;;;;;14.18;9.00;;;17.90;99.90;;;;;;4900304;29;20056;-93
2021/09/10 07:40:44;;;;;;;17.48;9.68;;;17.90;99.90;;;;;;4918212;29;20091;-92
2021/09/10 07:43:10;;;;;;;12.70;7.03;;;17.90;99.90;;;;;;4901489;29;20115;-91
2021/09/10 07:45:36;;;;;;;8.88;6.40;;;18.00;99.90;;;;;;4902505;29;20537;-91
2021/09/10 07:48:01;;;;;;;8.10;4.53;;;18.00;99.90;;;;;;4901426;29;20079;-92
2021/09/10 07:50:28;;;;;;;5.65;3.58;;;18.00;99.90;;;;;;4903852;29;20044;-91
2021/09/10 07:52:54;;;;;;;6.70;3.70;;;18.00;99.90;;;;;;4920053;29;20510;-91
2021/09/10 07:55:19;;;;;;;6.55;3.35;;;18.00;99.90;;;;;;4915397;29;20032;-91
2021/09/10 07:57:45;;;;;;;7.68;3.65;;;18.00;99.90;;;;;;4900559;29;20474;-92
2021/09/10 08:00:11;;;;;;;4.20;3.40;;;18.00;99.90;;;;;;4917512;29;20059;-91
2021/09/10 08:02:42;;;;;;;7.00;3.30;;;17.90;99.90;;;;;;4920187;29;20039;-94
2021/09/10 08:05:10;;;;;;;7.88;3.05;;;17.90;99.90;;;;;;4921693;29;20024;-92
2021/09/10 08:07:36;;;;;;;4.18;2.85;;;17.90;99.90;;;;;;4920472;29;20047;-92
2021/09/10 08:10:03;;;;;;;7.45;3.15;;;18.00;99.90;;;;;;4921048;29;20032;-94
2021/09/10 08:12:29;;;;;;;4.70;3.15;;;18.00;99.90;;;;;;4918560;29;20043;-94
2021/09/10 08:15:15;;;;;;;4.85;2.97;;;18.10;99.90;;;;;;4919312;29;20059;-94
2021/09/10 08:17:41;;;;;;;5.63;3.20;;;18.10;99.90;;;;;;4913497;29;20023;-95
2021/09/10 08:20:09;;;;;;;7.05;3.60;;;18.20;99.90;;;;;;4922308;29;20500;-95
2021/09/10 08:22:35;;;;;;;8.60;4.40;;;18.20;99.90;;;;;;4919157;29;20039;-92
2021/09/10 08:25:08;;;;;;;8.95;4.25;;;18.20;99.90;;;;;;4918793;29;20039;-95
2021/09/10 08:27:36;;;;;;;8.25;3.90;;;18.20;99.90;;;;;;4917894;29;20035;-94
2021/09/10 08:30:03;;;;;;;10.55;3.75;;;18.30;99.90;;;;;;4921550;29;20464;-94
2021/09/10 08:32:29;;;;;;;6.90;3.97;;;18.30;99.90;;;;;;4923689;29;20023;-93
2021/09/10 08:34:55;;;;;;;9.15;3.65;;;18.30;99.90;;;;;;4921244;29;20622;-94
2021/09/10 08:37:21;;;;;;;7.00;3.88;;;18.40;99.90;;;;;;4921267;29;20051;-95
2021/09/10 08:39:49;;;;;;;8.48;3.92;;;18.40;99.90;;;;;;4921309;29;20485;-95
2021/09/10 08:42:15;;;;;;;4.28;3.42;;;18.50;99.90;;;;;;4921314;29;20145;-93
2021/09/10 08:44:42;;;;;;;5.40;3.22;;;18.50;99.90;;;;;;4921196;29;20137;-92
2021/09/10 08:47:13;;;;;;;20.42;4.07;;;18.60;99.90;;;;;;4921435;29;20031;-93
2021/09/10 08:49:41;;;;;;;4.53;2.70;;;18.60;99.90;;;;;;4922433;29;20473;-93
2021/09/10 08:52:09;;;;;;;5.53;3.10;;;18.60;99.90;;;;;;4922774;29;20032;-94
2021/09/10 08:54:35;;;;;;;4.72;2.80;;;18.70;99.90;;;;;;4920616;29;20561;-94
2021/09/10 08:57:01;;;;;;;5.82;3.20;;;18.70;99.90;;;;;;4921679;29;20095;-93
2021/09/10 08:59:27;;;;;;;5.50;2.67;;;18.80;99.90;;;;;;4921859;29;20051;-94
2021/09/10 09:01:55;;;;;;;2.83;2.30;;;18.80;99.90;;;;;;4922169;29;20059;-94
2021/09/10 09:04:29;;;;;;;4.82;2.88;;;18.90;99.90;;;;;;4923114;29;20032;-95
2021/09/10 09:06:56;;;;;;;3.88;2.97;;;18.90;99.90;;;;;;4929144;29;20031;-94
2021/09/10 09:09:47;;;;;;;4.53;2.83;;;19.00;99.90;;;;;;4942455;29;20055;-94
2021/09/10 09:12:19;;;;;;;6.32;3.38;;;19.10;99.90;;;;;;4942000;29;20114;-93
2021/09/10 09:14:58;;;;;;;4.82;2.60;;;19.20;99.90;;;;;;4942253;29;20023;-93
2021/09/10 09:17:32;;;;;;;4.68;2.85;;;19.20;99.90;;;;;;4944216;29;20020;-94
2021/09/10 09:20:20;;;;;;;2.80;2.50;;;19.30;99.90;;;;;;4943230;29;20034;-93
2021/09/10 09:23:08;;;;;;;5.53;3.08;;;19.40;99.90;;;;;;4941460;29;20171;-94
2021/09/10 09:25:41;;;;;;;3.75;2.20;;;19.40;99.90;;;;;;4942456;29;20500;-93
2021/09/10 09:28:20;;;;;;;3.88;2.70;;;19.50;99.90;;;;;;4944567;29;20023;-94
2021/09/10 09:30:50;;;;;;;3.67;2.20;;;19.60;99.90;;;;;;4942305;29;20548;-94
2021/09/10 09:33:17;;;;;;;6.43;2.67;;;19.80;99.90;;;;;;4942039;29;20023;-95
2021/09/10 09:35:43;;;;;;;3.70;2.60;;;19.90;99.90;;;;;;4941868;29;20166;-94
2021/09/10 09:38:24;;;;;;;2.55;2.28;;;19.90;99.90;;;;;;4952200;29;20038;-94
2021/09/10 09:41:16;;;;;;;4.47;2.10;;;20.00;99.90;;;;;;4963658;29;20027;-93
2021/09/10 09:43:44;;;;;;;2.40;2.10;;;20.10;99.90;;;;;;4944651;29;20126;-94
2021/09/10 09:46:15;;;;;;;4.13;2.40;;;20.00;99.90;;;;;;4940765;29;20031;-93
2021/09/10 09:48:44;;;;;;;2.65;2.20;;;20.10;99.90;;;;;;4941202;29;20118;-95
2021/09/10 09:51:11;;;;;;;5.15;2.80;;;20.10;99.90;;;;;;4940764;29;20130;-94
2021/09/10 09:53:38;;;;;;;4.95;2.90;;;20.10;99.90;;;;;;4940514;29;20026;-93
2021/09/10 09:56:08;;;;;;;3.00;2.30;;;20.20;99.90;;;;;;4940802;29;20044;-93
2021/09/10 09:58:38;;;;;;;3.80;2.72;;;20.20;99.90;;;;;;4940540;29;20055;-93
2021/09/10 10:01:04;;;;;;;4.60;2.80;;;20.20;99.90;;;;;;4941056;29;20046;-91
2021/09/10 10:03:30;;;;;;;5.22;2.60;;;20.30;99.90;;;;;;4942609;29;20102;-93
2021/09/10 10:06:23;;;;;;;4.22;3.00;;;20.30;99.90;;;;;;4944027;29;20031;-92
2021/09/10 10:08:58;;;;;;;3.25;2.15;;;20.40;99.90;;;;;;4932565;29;20390;-92
2021/09/10 10:11:28;;;;;;;6.07;2.45;;;20.40;99.90;;;;;;4945622;29;20024;-92
2021/09/10 10:13:59;;;;;;;3.55;2.40;;;20.40;99.90;;;;;;4945322;29;20051;-92
2021/09/10 10:16:40;;;;;;;3.85;2.20;;;20.40;99.90;;;;;;4944386;29;20039;-93
2021/09/10 10:19:36;;;;;;;2.65;2.28;;;20.30;99.90;;;;;;4945309;29;20054;-92
2021/09/10 10:22:10;;;;;;;2.78;2.40;;;20.30;99.90;;;;;;4921106;29;20052;-92
2021/09/10 10:24:50;;;;;;;5.38;2.50;;;20.40;99.90;;;;;;4927831;29;20024;-92
2021/09/10 10:27:38;;;;;;;4.18;3.00;;;20.50;99.90;;;;;;4926643;29;20027;-94
2021/09/10 10:33:29;;;;;;;3.60;2.53;;;20.60;99.90;;;;;;4927397;29;20032;-93
2021/09/10 10:35:54;;;;;;;7.78;3.13;;;20.70;99.90;;;;;;4920870;29;20028;-93
2021/09/10 10:38:20;;;;;;;4.53;3.20;;;20.70;99.90;;;;;;4920838;29;20039;-92
2021/09/10 10:40:51;;;;;;;5.40;3.45;;;20.80;99.90;;;;;;4921911;29;20059;-93
2021/09/10 10:43:22;;;;;;;5.00;3.40;;;20.80;99.90;;;;;;4921341;29;20484;-94
2021/09/10 10:45:48;;;;;;;4.40;3.05;;;20.90;99.90;;;;;;4923715;29;20024;-94
2021/09/10 10:48:32;;;;;;;5.53;3.30;;;20.90;99.90;;;;;;4924513;29;20043;-93
2021/09/10 10:51:01;;;;;;;3.85;2.67;;;20.90;99.90;;;;;;4919571;29;20024;-93
2021/09/10 10:53:27;;;;;;;4.18;2.83;;;21.00;99.90;;;;;;4920781;29;20398;-93
2021/09/10 10:55:52;;;;;;;4.43;2.80;;;21.10;99.90;;;;;;4922144;29;20486;-93
2021/09/10 10:58:26;;;;;;;4.43;2.75;;;21.30;99.90;;;;;;4920621;29;20054;-94
2021/09/10 11:00:59;;;;;;;3.85;2.78;;;21.60;99.90;;;;;;4919599;29;20047;-94
2021/09/10 11:03:24;;;;;;;4.65;3.00;;;22.00;99.90;;;;;;4929169;29;20126;-94
2021/09/10 11:05:52;;;;;;;7.32;2.97;;;22.30;99.90;;;;;;4919267;29;20067;-94
2021/09/10 11:08:47;;;;;;;4.43;3.28;;;22.50;99.90;;;;;;4919405;29;20032;-93
2021/09/10 11:11:13;;;;;;;3.30;2.50;;;22.50;99.90;;;;;;4895596;29;20036;-93
2021/09/10 11:13:41;;;;;;;5.30;2.95;;;22.50;99.90;;;;;;4920525;29;20016;-93
2021/09/10 11:16:12;;;;;;;3.72;2.95;;;22.30;99.90;;;;;;4922200;29;20035;-94
2021/09/10 11:18:45;;;;;;;3.88;2.65;;;22.30;99.90;;;;;;4920082;29;20020;-93
2021/09/10 11:21:10;;;;;;;4.68;2.35;;;22.20;99.90;;;;;;4921198;29;20043;-93
2021/09/10 11:32:17;;;;;;;1.45;1.10;;;22.60;99.90;;;;;;5881476;23;20047;-93
2021/09/10 11:34:43;;;;;;;1.80;1.05;;;22.70;99.90;;;;;;4972160;28;20035;-93
2021/09/10 11:37:09;;;;;;;1.25;1.15;;;22.80;99.90;;;;;;4955047;29;20034;-93
2021/09/10 11:39:45;;;;;;;1.08;0.90;;;22.80;99.90;;;;;;4957356;28;20083;-92
2021/09/10 11:42:10;;;;;;;2.72;1.13;;;22.90;99.90;;;;;;4955259;29;20421;-93
2021/09/10 11:44:37;;;;;;;1.35;1.00;;;23.00;99.90;;;;;;4957430;29;20023;-92
2021/09/10 11:47:03;;;;;;;1.23;1.00;;;23.20;99.90;;;;;;4957818;29;20118;-94
2021/09/10 11:49:29;;;;;;;0.98;0.82;;;23.60;99.90;;;;;;4957006;29;20023;-94
2021/09/10 11:51:57;;;;;;;1.25;1.08;;;23.70;98.70;;;;;;4956736;29;20090;-94
2021/09/10 11:54:27;;;;;;;1.10;1.00;;;23.90;97.90;;;;;;4955237;29;20027;-94
2021/09/10 11:57:00;;;;;;;2.85;1.52;;;24.10;97.30;;;;;;4955955;29;20051;-93
2021/09/10 11:59:28;;;;;;;1.88;1.48;;;24.20;96.60;;;;;;4962595;28;20027;-92
2021/09/10 12:01:54;;;;;;;3.63;1.50;;;24.30;96.10;;;;;;4966669;28;20046;-93
2021/09/10 12:04:34;;;;;;;1.98;1.27;;;24.30;95.90;;;;;;4980466;28;20118;-94
2021/09/10 12:07:02;;;;;;;1.48;1.13;;;24.30;95.60;;;;;;4980705;28;20035;-93
2021/09/10 12:09:38;;;;;;;1.70;1.33;;;24.20;95.40;;;;;;4981107;28;20086;-93
2021/09/10 12:12:13;;;;;;;2.30;1.30;;;24.10;95.40;;;;;;4980931;28;20480;-94
2021/09/10 12:14:51;;;;;;;2.60;1.63;;;24.10;95.40;;;;;;4983209;28;20030;-93
2021/09/10 12:17:18;;;;;;;3.35;1.88;;;24.00;95.50;;;;;;4984303;28;20027;-93
2021/09/10 12:19:55;;;;;;;2.80;1.65;;;24.00;95.40;;;;;;4981354;28;20058;-93
2021/09/10 12:22:49;;;;;;;3.05;1.83;;;23.80;95.50;;;;;;4982991;28;20126;-92
2021/09/10 12:28:44;;;;;;;2.85;1.80;;;23.60;95.90;;;;;;5788312;23;20077;-92
2021/09/10 12:31:10;;;;;;;3.72;2.25;;;23.60;96.10;;;;;;4958669;28;20031;-93
2021/09/10 12:33:46;;;;;;;3.10;2.00;;;23.50;96.30;;;;;;4964312;28;20543;-93
2021/09/10 12:36:12;;;;;;;3.08;2.00;;;23.50;96.50;;;;;;4964590;28;20034;-93
2021/09/10 12:38:43;;;;;;;4.00;1.77;;;23.40;96.30;;;;;;4964194;28;20114;-92
2021/09/10 12:41:11;;;;;;;3.97;1.90;;;23.40;96.60;;;;;;4963643;28;20043;-94
2021/09/10 12:43:38;;;;;;;4.03;2.50;;;23.30;97.00;;;;;;4963799;28;20026;-94
2021/09/10 12:46:06;;;;;;;4.28;2.53;;;23.20;96.80;;;;;;4964258;28;20019;-92
2021/09/10 12:48:32;;;;;;;2.88;2.05;;;23.10;96.90;;;;;;4964704;28;20174;-92
2021/09/10 12:50:58;;;;;;;3.30;2.25;;;23.00;96.90;;;;;;4962291;28;20034;-93
2021/09/10 12:53:24;;;;;;;3.85;2.83;;;22.80;97.50;;;;;;4964065;28;20035;-93
2021/09/10 12:55:53;;;;;;;8.60;2.67;;;22.70;98.00;;;;;;4965690;28;20114;-93
2021/09/10 12:58:19;;;;;;;4.18;2.70;;;22.40;98.60;;;;;;4963210;28;20019;-93